DSV weather

Dansville Municipal Airport
Dansville, New York, United States

Public forecast

Using degrees Fahrenheit for public forecast. Weather courtesy of forecast.io.

Current aviation weather report (METAR) for Dansville Municipal Airport

Retrieved 2019/11/17 15:54 UTC (29 minutes ago):

KDSV 171554Z AUTO 18007KT 10SM OVC030 02/M09 A3025 RMK AO2 SLP260 T00221094

Closest aviation forecast (TAF) to Dansville Municipal Airport

Closest forecast is Greater Rochester International Airport, 33.0 nm (61.0 km) N. Retrieved 2019/11/17 12:30 UTC (4 hours ago):

TAF KROC 171127Z 1712/1812 12005KT P6SM FEW250 FM171500 14006KT P6SM FEW250 FM180200 14007KT P6SM SCT250 FM180900 VRB04KT P6SM BKN200